createdAt,value
2023-04-19T00:02:22.944Z,40.26
2023-04-19T00:04:49.909Z,40.16
2023-04-19T00:07:20.323Z,40.21
2023-04-19T00:09:47.205Z,40.07
2023-04-19T00:12:14.032Z,39.96
2023-04-19T00:14:40.784Z,40.01
2023-04-19T00:17:07.582Z,40.22
2023-04-19T00:19:34.453Z,40.38
2023-04-19T00:22:01.262Z,40.26
2023-04-19T00:24:28.312Z,40.22
2023-04-19T00:26:55.299Z,40.48
2023-04-19T00:29:22.049Z,40.38
2023-04-19T00:31:48.843Z,40.21
2023-04-19T00:34:16.225Z,40.48
2023-04-19T00:36:43.141Z,40.53
2023-04-19T00:39:09.917Z,40.62
2023-04-19T00:41:36.688Z,40.82
2023-04-19T00:44:03.489Z,40.62
2023-04-19T00:46:30.627Z,40.51
2023-04-19T00:48:57.817Z,40.54
2023-04-19T00:51:24.624Z,40.94
2023-04-19T00:53:52.139Z,41.09
2023-04-19T00:56:22.341Z,41.26
2023-04-19T00:58:49.590Z,41.26
2023-04-19T01:01:16.842Z,41.43
2023-04-19T01:03:44.460Z,41.47
2023-04-19T01:06:11.797Z,41.54
2023-04-19T01:08:39.567Z,41.72
2023-04-19T01:11:07.961Z,41.56
2023-04-19T01:13:34.905Z,41.74
2023-04-19T01:16:01.707Z,41.63
2023-04-19T01:18:32.887Z,41.70
2023-04-19T01:20:59.762Z,42.09
2023-04-19T01:23:26.554Z,41.86
2023-04-19T01:25:53.299Z,42.18
2023-04-19T01:28:20.076Z,42.42
2023-04-19T01:30:46.842Z,42.36
2023-04-19T01:33:13.584Z,42.44
2023-04-19T01:35:40.450Z,42.69
2023-04-19T01:38:07.266Z,42.71
2023-04-19T01:40:36.338Z,42.64
2023-04-19T01:43:03.318Z,42.94
2023-04-19T01:45:30.221Z,43.05
2023-04-19T01:47:57.027Z,43.26
2023-04-19T01:50:23.891Z,43.03
2023-04-19T01:52:50.662Z,43.17
2023-04-19T01:55:17.557Z,43.29
2023-04-19T01:57:44.524Z,43.50
2023-04-19T02:00:11.949Z,43.32
2023-04-19T02:02:39.008Z,43.46
2023-04-19T02:05:07.066Z,43.40
2023-04-19T02:07:34.026Z,43.64
2023-04-19T02:10:00.836Z,43.76
2023-04-19T02:12:31.335Z,43.95
2023-04-19T02:14:59.438Z,43.80
2023-04-19T02:17:26.607Z,44.42
2023-04-19T02:19:53.392Z,44.25
2023-04-19T02:22:20.718Z,44.10
2023-04-19T02:24:49.802Z,44.28
2023-04-19T02:27:17.178Z,44.23
2023-04-19T02:29:44.412Z,44.25
2023-04-19T02:32:14.326Z,44.23
2023-04-19T02:34:41.182Z,44.44
2023-04-19T02:37:07.998Z,44.56
2023-04-19T02:39:34.756Z,44.39
2023-04-19T02:42:02.234Z,44.54
2023-04-19T02:44:28.988Z,44.48
2023-04-19T02:46:57.541Z,44.88
2023-04-19T02:49:24.401Z,44.67
2023-04-19T02:51:52.750Z,44.90
2023-04-19T02:54:19.531Z,44.80
2023-04-19T02:56:46.315Z,45.01
2023-04-19T02:59:13.095Z,44.95
2023-04-19T03:01:39.879Z,44.91
2023-04-19T03:04:06.925Z,44.86
2023-04-19T03:06:33.787Z,45.15
2023-04-19T03:09:00.793Z,45.21
2023-04-19T03:11:27.626Z,45.24
2023-04-19T03:13:54.403Z,44.85
2023-04-19T03:16:21.221Z,45.51
2023-04-19T03:18:49.488Z,45.20
2023-04-19T03:21:16.483Z,45.55
2023-04-19T03:23:43.246Z,45.67
2023-04-19T03:26:10.136Z,45.30
2023-04-19T03:28:37.109Z,45.49
2023-04-19T03:31:03.957Z,45.57
2023-04-19T03:33:30.779Z,45.71
2023-04-19T03:35:57.537Z,45.86
2023-04-19T03:38:24.309Z,45.72
2023-04-19T03:40:51.183Z,45.58
2023-04-19T03:43:18.432Z,45.72
2023-04-19T03:45:45.166Z,45.67
2023-04-19T03:48:11.959Z,45.99
2023-04-19T03:50:38.759Z,45.71
2023-04-19T03:53:05.824Z,46.03
2023-04-19T03:55:32.604Z,45.61
2023-04-19T03:57:59.534Z,45.93
2023-04-19T04:00:27.353Z,45.73
2023-04-19T04:02:54.296Z,46.09
2023-04-19T04:05:21.339Z,46.19
2023-04-19T04:07:48.141Z,46.12
2023-04-19T04:10:14.932Z,46.32
2023-04-19T04:12:41.689Z,46.37
2023-04-19T04:15:09.142Z,46.16
2023-04-19T04:17:35.961Z,46.42
2023-04-19T04:20:03.241Z,46.38
2023-04-19T04:22:29.979Z,46.66
2023-04-19T04:24:58.102Z,46.45
2023-04-19T04:27:24.891Z,46.65
2023-04-19T04:29:51.651Z,46.71
2023-04-19T04:32:22.897Z,46.98
2023-04-19T04:34:50.325Z,46.87
2023-04-19T04:37:17.820Z,47.01
2023-04-19T04:39:44.613Z,46.87
2023-04-19T04:42:12.128Z,47.03
2023-04-19T04:44:39.006Z,46.96
2023-04-19T04:47:05.839Z,47.42
2023-04-19T04:49:32.685Z,47.22
2023-04-19T04:51:59.564Z,47.18
2023-04-19T04:54:26.320Z,47.53
2023-04-19T04:56:53.093Z,47.50
2023-04-19T04:59:19.909Z,47.54
2023-04-19T05:01:46.777Z,47.48
2023-04-19T05:04:13.824Z,47.84
2023-04-19T05:06:41.051Z,48.33
2023-04-19T05:09:08.097Z,48.31
2023-04-19T05:11:35.094Z,48.09
2023-04-19T05:14:02.805Z,47.72
2023-04-19T05:16:29.729Z,47.04
2023-04-19T05:18:56.640Z,47.16
2023-04-19T05:21:23.430Z,46.65
2023-04-19T05:23:53.311Z,46.33
2023-04-19T05:26:20.141Z,45.91
2023-04-19T05:28:46.997Z,45.38
2023-04-19T05:31:14.170Z,45.12
2023-04-19T05:33:41.004Z,44.74
2023-04-19T05:36:08.138Z,44.71
2023-04-19T05:38:34.882Z,44.59
2023-04-19T05:41:03.129Z,44.22
2023-04-19T05:43:29.940Z,43.65
2023-04-19T05:45:57.019Z,43.26
2023-04-19T05:48:25.288Z,42.82
2023-04-19T05:50:56.562Z,42.43
2023-04-19T05:53:23.492Z,42.00
2023-04-19T05:55:51.359Z,41.19
2023-04-19T05:58:19.004Z,40.68
2023-04-19T06:00:46.369Z,40.26
2023-04-19T06:03:13.288Z,39.91
2023-04-19T06:05:40.932Z,39.51
2023-04-19T06:08:09.364Z,39.30
2023-04-19T06:10:52.793Z,38.77
2023-04-19T06:13:21.134Z,39.19
2023-04-19T06:15:48.747Z,38.96
2023-04-19T06:18:19.645Z,38.88
2023-04-19T06:20:47.251Z,38.75
2023-04-19T06:23:15.062Z,38.80
2023-04-19T06:25:42.025Z,38.72
2023-04-19T06:28:08.806Z,38.81
2023-04-19T06:30:35.693Z,38.50
2023-04-19T06:33:02.624Z,38.37
2023-04-19T06:35:29.403Z,37.74
2023-04-19T06:37:56.157Z,38.07
2023-04-19T06:40:24.106Z,38.11
2023-04-19T06:42:50.908Z,38.20
2023-04-19T06:45:17.828Z,38.06
2023-04-19T06:47:44.715Z,38.42
2023-04-19T06:50:11.749Z,38.58
2023-04-19T06:52:38.969Z,38.20
2023-04-19T06:55:07.420Z,38.06
2023-04-19T06:57:34.213Z,37.95
2023-04-19T07:00:01.311Z,38.08
2023-04-19T07:02:28.381Z,37.98
2023-04-19T07:04:55.427Z,37.33
2023-04-19T07:07:22.226Z,37.07
2023-04-19T07:09:48.978Z,36.86
2023-04-19T07:12:16.033Z,36.80
2023-04-19T07:14:42.785Z,36.75
2023-04-19T07:17:09.611Z,36.41
2023-04-19T07:19:36.418Z,35.80
2023-04-19T07:22:03.503Z,35.31
2023-04-19T07:24:30.418Z,34.87
2023-04-19T07:26:57.586Z,34.54
2023-04-19T07:29:24.348Z,34.57
2023-04-19T07:31:51.303Z,34.21
2023-04-19T07:34:18.387Z,34.30
2023-04-19T07:36:45.369Z,33.64
2023-04-19T07:39:13.191Z,33.17
2023-04-19T07:41:40.037Z,32.76
2023-04-19T07:44:06.804Z,32.60
2023-04-19T07:46:33.608Z,32.32
2023-04-19T07:49:00.484Z,32.67
2023-04-19T07:51:27.385Z,32.49
2023-04-19T07:53:54.213Z,32.76
2023-04-19T07:56:22.866Z,32.88
2023-04-19T07:59:04.119Z,32.15
2023-04-19T08:01:34.908Z,32.25
2023-04-19T08:04:02.398Z,32.35
2023-04-19T08:06:30.713Z,32.50
2023-04-19T08:08:57.510Z,32.20
2023-04-19T08:11:25.266Z,32.70
2023-04-19T08:14:04.444Z,33.19
2023-04-19T08:19:05.922Z,33.58
2023-04-19T08:21:40.684Z,34.32
2023-04-19T08:24:08.516Z,33.69
2023-04-19T08:26:35.414Z,33.90
2023-04-19T08:29:02.444Z,34.23
2023-04-19T08:31:29.444Z,34.01
2023-04-19T08:33:56.966Z,33.60
2023-04-19T08:36:37.036Z,33.55
2023-04-19T08:39:10.372Z,33.40
2023-04-19T08:41:48.096Z,33.53
2023-04-19T08:44:32.480Z,33.87
2023-04-19T08:47:02.771Z,33.32
2023-04-19T08:49:29.870Z,32.82
2023-04-19T08:51:58.919Z,32.77
2023-04-19T08:54:26.354Z,33.05
2023-04-19T08:56:54.446Z,33.29
2023-04-19T08:59:21.435Z,33.67
2023-04-19T09:01:48.406Z,33.26
2023-04-19T09:06:45.197Z,32.83
2023-04-19T09:09:34.188Z,32.87
2023-04-19T09:12:04.067Z,33.07
2023-04-19T09:14:30.864Z,32.96
2023-04-19T09:17:16.811Z,32.72
2023-04-19T09:19:49.525Z,32.59
2023-04-19T09:22:16.947Z,32.61
2023-04-19T09:27:15.847Z,32.37
2023-04-19T09:29:52.944Z,32.13
2023-04-19T09:32:19.886Z,32.89
2023-04-19T09:34:58.073Z,32.30
2023-04-19T09:39:56.393Z,31.89
2023-04-19T09:42:42.369Z,31.73
2023-04-19T09:47:41.010Z,31.67
2023-04-19T09:50:22.601Z,31.88
2023-04-19T09:52:52.431Z,32.12
2023-04-19T09:57:49.882Z,31.91
2023-04-19T10:00:17.029Z,31.64
2023-04-19T10:02:48.761Z,30.71
2023-04-19T10:05:21.259Z,30.89
2023-04-19T10:07:49.546Z,30.40
2023-04-19T10:10:20.712Z,30.03
2023-04-19T10:15:23.488Z,29.58
2023-04-19T10:17:50.941Z,28.65
2023-04-19T10:20:30.801Z,28.88
2023-04-19T10:22:57.804Z,29.12
2023-04-19T10:25:30.938Z,29.24
2023-04-19T10:27:57.934Z,28.70
2023-04-19T10:30:28.393Z,28.32
2023-04-19T10:32:58.818Z,28.83
2023-04-19T10:35:37.672Z,28.68
2023-04-19T10:38:16.376Z,28.80
2023-04-19T10:40:56.176Z,28.12
2023-04-19T10:43:36.860Z,28.25
2023-04-19T10:46:22.971Z,28.40
2023-04-19T10:48:53.766Z,28.55
2023-04-19T10:51:23.863Z,28.39
2023-04-19T10:53:56.015Z,27.93
2023-04-19T10:57:02.778Z,28.48
2023-04-19T10:59:37.597Z,28.03
2023-04-19T11:02:26.061Z,28.52
2023-04-19T11:04:52.946Z,28.82
2023-04-19T11:07:21.355Z,28.57
2023-04-19T11:09:49.952Z,28.40
2023-04-19T11:12:20.955Z,29.00
2023-04-19T11:14:59.733Z,28.77
2023-04-19T11:17:29.252Z,28.59
2023-04-19T11:19:59.508Z,28.22
2023-04-19T11:22:29.609Z,28.87
2023-04-19T11:24:56.417Z,29.22
2023-04-19T11:27:23.276Z,28.53
2023-04-19T11:29:50.094Z,27.99
2023-04-19T11:32:16.884Z,27.90
2023-04-19T11:34:43.700Z,28.23
2023-04-19T11:37:11.573Z,27.66
2023-04-19T11:39:47.304Z,27.72
2023-04-19T11:42:20.639Z,28.33
2023-04-19T11:44:52.090Z,28.46
2023-04-19T11:47:20.201Z,28.61
2023-04-19T11:49:47.045Z,28.40
2023-04-19T11:52:22.480Z,27.97
2023-04-19T11:54:50.403Z,27.70
2023-04-19T11:57:29.083Z,27.42
2023-04-19T12:00:08.213Z,27.82
2023-04-19T12:02:39.623Z,27.54
2023-04-19T12:05:11.613Z,28.03
2023-04-19T12:07:58.407Z,28.40
2023-04-19T12:10:25.335Z,28.52
2023-04-19T12:12:52.108Z,27.59
2023-04-19T12:15:18.962Z,27.25
2023-04-19T12:18:02.390Z,27.64
2023-04-19T12:20:33.778Z,27.70
2023-04-19T12:23:00.705Z,27.77
2023-04-19T12:25:33.067Z,27.60
2023-04-19T12:28:07.022Z,27.78
2023-04-19T12:30:36.423Z,27.94
2023-04-19T12:33:03.469Z,28.18
2023-04-19T12:35:30.713Z,28.46
2023-04-19T12:37:59.285Z,27.81
2023-04-19T12:40:27.333Z,28.05
2023-04-19T12:42:54.850Z,27.85
2023-04-19T12:45:21.765Z,27.47
2023-04-19T12:47:49.207Z,27.84
2023-04-19T12:50:16.413Z,27.99
2023-04-19T12:52:46.223Z,27.87
2023-04-19T12:55:13.225Z,27.83
2023-04-19T12:57:40.112Z,27.56
2023-04-19T13:00:07.759Z,27.83
2023-04-19T13:02:35.327Z,27.91
2023-04-19T13:05:04.255Z,28.03
2023-04-19T13:07:31.566Z,28.09
2023-04-19T13:09:58.402Z,28.21
2023-04-19T13:12:25.296Z,28.38
2023-04-19T13:14:52.712Z,27.79
2023-04-19T13:17:20.441Z,27.09
2023-04-19T13:19:47.649Z,27.51
2023-04-19T13:22:15.785Z,27.65
2023-04-19T13:24:42.692Z,27.37
2023-04-19T13:27:09.599Z,27.55
2023-04-19T13:29:36.765Z,27.84
2023-04-19T13:32:03.559Z,28.01
2023-04-19T13:34:30.577Z,28.13
2023-04-19T13:36:58.213Z,27.79
2023-04-19T13:39:25.401Z,27.81
2023-04-19T13:41:52.282Z,28.10
2023-04-19T13:44:19.315Z,28.08
2023-04-19T13:46:46.199Z,28.50
2023-04-19T13:49:13.034Z,28.40
2023-04-19T13:51:49.487Z,28.64
2023-04-19T13:54:18.322Z,28.37
2023-04-19T13:56:45.800Z,28.73
2023-04-19T13:59:12.595Z,28.76
2023-04-19T14:01:39.477Z,28.50
2023-04-19T14:04:06.721Z,28.43
2023-04-19T14:06:33.885Z,28.19
2023-04-19T14:09:00.655Z,28.17
2023-04-19T14:11:28.203Z,28.24
2023-04-19T14:13:55.656Z,28.67
2023-04-19T14:16:25.136Z,27.82
2023-04-19T14:18:52.434Z,27.89
2023-04-19T14:21:22.716Z,27.83
2023-04-19T14:23:49.506Z,27.81
2023-04-19T14:26:16.309Z,27.80
2023-04-19T14:28:43.134Z,27.98
2023-04-19T14:31:09.931Z,28.19
2023-04-19T14:33:36.744Z,27.62
2023-04-19T14:36:03.992Z,28.25
2023-04-19T14:38:30.855Z,28.14
2023-04-19T14:40:57.655Z,27.95
2023-04-19T14:43:24.411Z,28.26
2023-04-19T14:45:52.695Z,28.36
2023-04-19T14:48:21.910Z,28.31
2023-04-19T14:50:49.045Z,28.33
2023-04-19T14:53:16.119Z,28.66
2023-04-19T14:55:42.941Z,28.45
2023-04-19T14:58:09.815Z,27.96
2023-04-19T15:00:36.607Z,27.90
2023-04-19T15:03:03.530Z,27.44
2023-04-19T15:05:30.662Z,27.77
2023-04-19T15:07:57.483Z,27.60
2023-04-19T15:10:24.354Z,27.79
2023-04-19T15:12:51.121Z,27.95
2023-04-19T15:15:17.870Z,28.07
2023-04-19T15:17:44.881Z,28.35
2023-04-19T15:20:12.000Z,28.09
2023-04-19T15:22:38.899Z,28.21
2023-04-19T15:25:06.102Z,27.92
2023-04-19T15:27:32.920Z,28.18
2023-04-19T15:29:59.781Z,28.01
2023-04-19T15:32:28.924Z,27.89
2023-04-19T15:34:55.833Z,27.79
2023-04-19T15:37:22.653Z,27.60
2023-04-19T15:39:50.215Z,27.22
2023-04-19T15:42:17.066Z,27.46
2023-04-19T15:44:44.373Z,27.45
2023-04-19T15:47:11.245Z,27.21
2023-04-19T15:49:40.417Z,27.07
2023-04-19T15:52:08.750Z,27.08
2023-04-19T15:54:37.587Z,26.76
2023-04-19T15:57:04.396Z,26.94
2023-04-19T15:59:31.600Z,27.08
2023-04-19T16:01:58.523Z,26.94
2023-04-19T16:04:25.764Z,26.80
2023-04-19T16:06:52.753Z,27.33
2023-04-19T16:09:19.558Z,27.45
2023-04-19T16:11:46.463Z,27.06
2023-04-19T16:14:13.391Z,27.11
2023-04-19T16:16:40.282Z,27.05
2023-04-19T16:19:07.173Z,26.88
2023-04-19T16:21:34.046Z,27.07
2023-04-19T16:24:00.983Z,26.75
2023-04-19T16:26:27.905Z,26.94
2023-04-19T16:28:54.800Z,27.32
2023-04-19T16:31:21.756Z,27.07
2023-04-19T16:33:48.654Z,26.86
2023-04-19T16:36:15.450Z,26.92
2023-04-19T16:38:42.205Z,26.73
2023-04-19T16:41:09.205Z,26.95
2023-04-19T16:43:36.805Z,27.31
2023-04-19T16:46:04.082Z,26.83
2023-04-19T16:48:30.939Z,27.07
2023-04-19T16:50:57.710Z,27.32
2023-04-19T16:53:25.208Z,27.15
2023-04-19T16:55:52.131Z,27.79
2023-04-19T16:58:19.609Z,28.02
2023-04-19T17:00:46.508Z,27.63
2023-04-19T17:03:14.293Z,27.80
2023-04-19T17:05:41.209Z,27.63
2023-04-19T17:08:08.090Z,27.50
2023-04-19T17:10:34.856Z,27.64
2023-04-19T17:13:01.817Z,27.46
2023-04-19T17:15:28.746Z,27.60
2023-04-19T17:17:55.624Z,27.74
2023-04-19T17:20:22.435Z,28.14
2023-04-19T17:22:49.195Z,28.08
2023-04-19T17:25:15.975Z,28.13
2023-04-19T17:27:42.794Z,28.06
2023-04-19T17:30:09.825Z,28.11
2023-04-19T17:32:36.664Z,27.67
2023-04-19T17:35:04.556Z,28.04
2023-04-19T17:37:31.410Z,28.13
2023-04-19T17:39:58.224Z,28.18
2023-04-19T17:42:25.876Z,27.98
2023-04-19T17:44:52.941Z,28.23
2023-04-19T17:47:20.305Z,28.41
2023-04-19T17:49:47.461Z,28.24
2023-04-19T17:52:14.434Z,28.10
2023-04-19T17:54:41.223Z,28.18
2023-04-19T17:57:07.993Z,28.00
2023-04-19T17:59:35.269Z,28.50
2023-04-19T18:02:02.333Z,28.37
2023-04-19T18:04:30.789Z,28.84
2023-04-19T18:06:57.773Z,28.47
2023-04-19T18:09:24.582Z,28.13
2023-04-19T18:11:51.404Z,28.21
2023-04-19T18:14:18.177Z,28.15
2023-04-19T18:16:44.978Z,28.06
2023-04-19T18:19:11.808Z,27.95
2023-04-19T18:21:38.722Z,27.89
2023-04-19T18:24:06.181Z,28.04
2023-04-19T18:26:41.850Z,27.92
2023-04-19T18:29:09.642Z,28.07
2023-04-19T18:31:36.436Z,28.33
2023-04-19T18:34:03.692Z,27.99
2023-04-19T18:36:31.438Z,28.15
2023-04-19T18:38:58.211Z,28.47
2023-04-19T18:41:25.089Z,28.65
2023-04-19T18:44:18.463Z,28.80
2023-04-19T18:46:38.602Z,28.87
2023-04-19T18:49:07.980Z,28.98
2023-04-19T18:51:34.747Z,29.25
2023-04-19T18:54:01.626Z,29.39
2023-04-19T18:57:03.826Z,29.42
2023-04-19T18:59:15.932Z,29.41
2023-04-19T19:01:45.667Z,29.41
2023-04-19T19:04:37.430Z,29.58
2023-04-19T19:07:18.226Z,29.92
2023-04-19T19:09:56.117Z,30.49
2023-04-19T19:12:23.602Z,30.88
2023-04-19T19:14:50.398Z,31.38
2023-04-19T19:17:17.250Z,31.39
2023-04-19T19:19:44.072Z,31.74
2023-04-19T19:22:25.061Z,32.16
2023-04-19T19:24:54.074Z,32.26
2023-04-19T19:27:20.845Z,32.34
2023-04-19T19:29:47.662Z,32.53
2023-04-19T19:32:14.439Z,32.89
2023-04-19T19:34:53.814Z,32.99
2023-04-19T19:37:22.132Z,33.33
2023-04-19T19:39:48.913Z,33.77
2023-04-19T19:42:17.153Z,34.16
2023-04-19T19:44:44.066Z,34.21
2023-04-19T19:47:11.831Z,34.84
2023-04-19T19:52:08.660Z,35.38
2023-04-19T19:54:35.576Z,35.66
2023-04-19T19:59:34.854Z,35.94
2023-04-19T20:02:03.390Z,36.03
2023-04-19T20:04:31.476Z,36.15
2023-04-19T20:07:25.885Z,36.35
2023-04-19T20:09:45.294Z,36.59
2023-04-19T20:12:13.445Z,36.72
2023-04-19T20:14:40.855Z,36.49
2023-04-19T20:17:07.794Z,36.90
2023-04-19T20:19:35.730Z,37.13
2023-04-19T20:22:02.490Z,37.00
2023-04-19T20:24:29.800Z,36.93
2023-04-19T20:26:57.373Z,37.06
2023-04-19T20:29:24.222Z,37.27
2023-04-19T20:31:54.176Z,37.46
2023-04-19T20:34:23.982Z,37.78
2023-04-19T20:36:51.398Z,37.92
2023-04-19T20:39:18.933Z,38.22
2023-04-19T20:41:51.145Z,38.17
2023-04-19T20:44:18.171Z,38.58
2023-04-19T20:46:45.018Z,38.12
2023-04-19T20:49:12.032Z,38.51
2023-04-19T20:51:38.849Z,38.28
2023-04-19T20:54:05.650Z,38.08
2023-04-19T20:56:32.454Z,37.89
2023-04-19T20:58:59.221Z,37.95
2023-04-19T21:01:26.123Z,37.95
2023-04-19T21:03:53.144Z,37.74
2023-04-19T21:06:23.237Z,37.51
2023-04-19T21:08:50.447Z,37.56
2023-04-19T21:11:17.257Z,37.51
2023-04-19T21:13:44.053Z,37.36
2023-04-19T21:16:10.873Z,37.20
2023-04-19T21:18:37.640Z,37.24
2023-04-19T21:21:04.542Z,37.16
2023-04-19T21:23:31.370Z,37.24
2023-04-19T21:25:58.146Z,37.52
2023-04-19T21:28:25.032Z,37.72
2023-04-19T21:30:53.286Z,38.02
2023-04-19T21:33:20.142Z,37.89
2023-04-19T21:35:46.926Z,38.10
2023-04-19T21:38:13.689Z,38.10
2023-04-19T21:40:40.596Z,38.36
2023-04-19T21:43:07.376Z,38.61
2023-04-19T21:45:34.187Z,38.56
2023-04-19T21:48:00.996Z,38.68
2023-04-19T21:50:27.899Z,38.82
2023-04-19T21:52:54.685Z,39.31
2023-04-19T21:55:21.527Z,39.22
2023-04-19T21:57:48.279Z,39.34
2023-04-19T22:00:15.814Z,39.31
2023-04-19T22:02:42.762Z,39.67
2023-04-19T22:05:09.964Z,39.67
2023-04-19T22:07:39.359Z,39.61
2023-04-19T22:10:07.449Z,40.01
2023-04-19T22:12:34.278Z,40.19
2023-04-19T22:15:02.380Z,40.23
2023-04-19T22:17:29.772Z,40.33
2023-04-19T22:19:56.687Z,40.61
2023-04-19T22:22:23.460Z,40.61
2023-04-19T22:24:57.465Z,40.85
2023-04-19T22:27:25.659Z,41.00
2023-04-19T22:29:52.757Z,41.46
2023-04-19T22:32:19.597Z,41.48
2023-04-19T22:34:46.553Z,41.63
2023-04-19T22:37:13.324Z,41.87
2023-04-19T22:39:40.381Z,42.04
2023-04-19T22:42:07.143Z,42.11
2023-04-19T22:44:33.918Z,42.41
2023-04-19T22:47:00.785Z,42.66
2023-04-19T22:49:27.578Z,43.03
2023-04-19T22:51:54.731Z,43.30
2023-04-19T22:54:21.672Z,43.33
2023-04-19T22:56:48.438Z,43.43
2023-04-19T22:59:15.402Z,43.58
2023-04-19T23:01:42.555Z,44.18
2023-04-19T23:04:13.958Z,44.31
2023-04-19T23:06:42.505Z,44.81
2023-04-19T23:09:10.945Z,44.91
2023-04-19T23:11:39.082Z,45.40
2023-04-19T23:14:06.160Z,45.75
2023-04-19T23:16:33.311Z,46.08
2023-04-19T23:19:01.049Z,46.50
2023-04-19T23:21:29.914Z,46.60
2023-04-19T23:23:56.698Z,47.10
2023-04-19T23:26:23.556Z,47.15
2023-04-19T23:28:50.443Z,47.75
2023-04-19T23:31:17.324Z,47.99
2023-04-19T23:33:44.229Z,48.06
2023-04-19T23:36:11.084Z,48.56
2023-04-19T23:38:37.906Z,48.62
2023-04-19T23:41:04.697Z,48.85
2023-04-19T23:43:31.497Z,48.88
2023-04-19T23:45:58.277Z,49.31
2023-04-19T23:48:25.084Z,49.11
2023-04-19T23:50:51.852Z,49.32
2023-04-19T23:53:18.627Z,49.47
2023-04-19T23:55:45.410Z,49.78
2023-04-19T23:58:12.230Z,49.62
